sensor_id;sensor_type;location;lat;lon;timestamp;pressure;altitude;pressure_sealevel;temperature;humidity
39223;BME280;24936;46.328;11.026;2022-07-29T00:01:44;94613.81;;;16.96;100.00
39223;BME280;24936;46.328;11.026;2022-07-29T00:04:10;94623.53;;;16.97;100.00
39223;BME280;24936;46.328;11.026;2022-07-29T00:06:35;94617.97;;;16.88;100.00
39223;BME280;24936;46.328;11.026;2022-07-29T00:09:01;94612.72;;;16.80;100.00
39223;BME280;24936;46.328;11.026;2022-07-29T00:11:26;94615.75;;;16.83;100.00
39223;BME280;24936;46.328;11.026;2022-07-29T00:13:52;94611.50;;;16.81;100.00
39223;BME280;24936;46.328;11.026;2022-07-29T00:16:17;94606.38;;;16.84;100.00
39223;BME280;24936;46.328;11.026;2022-07-29T00:18:42;94616.09;;;16.97;100.00
39223;BME280;24936;46.328;11.026;2022-07-29T00:21:08;94614.78;;;16.76;100.00
39223;BME280;24936;46.328;11.026;2022-07-29T00:23:33;94613.28;;;16.88;100.00
39223;BME280;24936;46.328;11.026;2022-07-29T00:25:58;94614.78;;;16.89;100.00
39223;BME280;24936;46.328;11.026;2022-07-29T00:28:24;94619.56;;;16.72;100.00
39223;BME280;24936;46.328;11.026;2022-07-29T00:30:49;94623.16;;;16.69;100.00
39223;BME280;24936;46.328;11.026;2022-07-29T00:33:14;94613.53;;;16.65;100.00
39223;BME280;24936;46.328;11.026;2022-07-29T00:35:40;94617.91;;;16.62;100.00
39223;BME280;24936;46.328;11.026;2022-07-29T00:38:13;94615.66;;;16.44;100.00
39223;BME280;24936;46.328;11.026;2022-07-29T00:40:39;94617.63;;;16.31;100.00
39223;BME280;24936;46.328;11.026;2022-07-29T00:43:04;94621.41;;;16.21;100.00
39223;BME280;24936;46.328;11.026;2022-07-29T00:45:30;94622.38;;;16.14;100.00
39223;BME280;24936;46.328;11.026;2022-07-29T00:47:55;94626.53;;;16.19;100.00
39223;BME280;24936;46.328;11.026;2022-07-29T00:50:21;94626.47;;;16.35;100.00
39223;BME280;24936;46.328;11.026;2022-07-29T00:52:46;94625.72;;;16.47;100.00
39223;BME280;24936;46.328;11.026;2022-07-29T00:55:13;94618.19;;;16.39;100.00
39223;BME280;24936;46.328;11.026;2022-07-29T00:57:40;94621.56;;;16.43;100.00
39223;BME280;24936;46.328;11.026;2022-07-29T01:00:09;94617.31;;;16.42;100.00
39223;BME280;24936;46.328;11.026;2022-07-29T01:02:35;94616.56;;;16.41;100.00
39223;BME280;24936;46.328;11.026;2022-07-29T01:05:02;94627.97;;;16.65;100.00
39223;BME280;24936;46.328;11.026;2022-07-29T01:07:29;94619.66;;;16.56;100.00
39223;BME280;24936;46.328;11.026;2022-07-29T01:09:56;94612.31;;;16.53;100.00
39223;BME280;24936;46.328;11.026;2022-07-29T01:12:26;94613.94;;;16.50;100.00
39223;BME280;24936;46.328;11.026;2022-07-29T01:14:53;94611.13;;;16.54;100.00
39223;BME280;24936;46.328;11.026;2022-07-29T01:17:24;94601.81;;;16.51;100.00
39223;BME280;24936;46.328;11.026;2022-07-29T01:28:00;94600.41;;;16.47;100.00
39223;BME280;24936;46.328;11.026;2022-07-29T01:30:27;94594.38;;;16.39;100.00
39223;BME280;24936;46.328;11.026;2022-07-29T01:32:56;94590.63;;;16.33;100.00
39223;BME280;24936;46.328;11.026;2022-07-29T01:35:44;94600.88;;;16.29;100.00
39223;BME280;24936;46.328;11.026;2022-07-29T01:38:17;94600.50;;;16.43;100.00
39223;BME280;24936;46.328;11.026;2022-07-29T01:40:49;94602.13;;;16.41;100.00
39223;BME280;24936;46.328;11.026;2022-07-29T01:43:19;94602.34;;;16.33;100.00
39223;BME280;24936;46.328;11.026;2022-07-29T01:45:53;94598.94;;;16.29;100.00
39223;BME280;24936;46.328;11.026;2022-07-29T01:48:23;94592.03;;;16.25;100.00
39223;BME280;24936;46.328;11.026;2022-07-29T01:51:15;94599.50;;;16.37;100.00
39223;BME280;24936;46.328;11.026;2022-07-29T01:53:47;94591.06;;;16.31;100.00
39223;BME280;24936;46.328;11.026;2022-07-29T01:56:16;94595.53;;;16.25;100.00
39223;BME280;24936;46.328;11.026;2022-07-29T01:58:45;94593.44;;;16.17;100.00
39223;BME280;24936;46.328;11.026;2022-07-29T02:01:12;94606.84;;;16.11;100.00
39223;BME280;24936;46.328;11.026;2022-07-29T02:03:38;94602.00;;;16.02;100.00
39223;BME280;24936;46.328;11.026;2022-07-29T02:06:08;94598.91;;;15.88;100.00
39223;BME280;24936;46.328;11.026;2022-07-29T02:08:36;94596.19;;;15.88;100.00
39223;BME280;24936;46.328;11.026;2022-07-29T02:11:04;94601.81;;;15.80;100.00
39223;BME280;24936;46.328;11.026;2022-07-29T02:13:32;94597.75;;;15.72;100.00
39223;BME280;24936;46.328;11.026;2022-07-29T02:16:00;94592.78;;;15.51;100.00
39223;BME280;24936;46.328;11.026;2022-07-29T02:18:27;94609.34;;;15.44;100.00
39223;BME280;24936;46.328;11.026;2022-07-29T02:20:56;94605.56;;;15.38;100.00
39223;BME280;24936;46.328;11.026;2022-07-29T02:23:24;94604.72;;;15.41;100.00
39223;BME280;24936;46.328;11.026;2022-07-29T02:25:57;94597.22;;;15.45;100.00
39223;BME280;24936;46.328;11.026;2022-07-29T02:28:26;94606.53;;;15.31;100.00
39223;BME280;24936;46.328;11.026;2022-07-29T02:30:55;94592.31;;;15.23;100.00
39223;BME280;24936;46.328;11.026;2022-07-29T02:33:24;94597.75;;;15.40;100.00
39223;BME280;24936;46.328;11.026;2022-07-29T02:35:50;94592.06;;;15.34;100.00
39223;BME280;24936;46.328;11.026;2022-07-29T02:38:18;94588.97;;;15.32;100.00
39223;BME280;24936;46.328;11.026;2022-07-29T02:41:05;94588.88;;;15.35;100.00
39223;BME280;24936;46.328;11.026;2022-07-29T02:43:33;94588.72;;;15.26;100.00
39223;BME280;24936;46.328;11.026;2022-07-29T02:46:02;94601.31;;;15.20;100.00
39223;BME280;24936;46.328;11.026;2022-07-29T02:51:54;94588.47;;;15.04;100.00
39223;BME280;24936;46.328;11.026;2022-07-29T02:54:30;94584.78;;;14.95;100.00
39223;BME280;24936;46.328;11.026;2022-07-29T02:56:59;94582.13;;;14.91;100.00
39223;BME280;24936;46.328;11.026;2022-07-29T02:59:27;94590.28;;;14.75;100.00
39223;BME280;24936;46.328;11.026;2022-07-29T03:01:55;94587.31;;;14.69;100.00
39223;BME280;24936;46.328;11.026;2022-07-29T03:04:24;94581.81;;;14.53;100.00
39223;BME280;24936;46.328;11.026;2022-07-29T03:06:52;94582.44;;;14.41;100.00
39223;BME280;24936;46.328;11.026;2022-07-29T03:09:18;94589.25;;;14.49;100.00
39223;BME280;24936;46.328;11.026;2022-07-29T03:11:44;94581.53;;;14.47;100.00
39223;BME280;24936;46.328;11.026;2022-07-29T03:14:09;94582.44;;;14.60;100.00
39223;BME280;24936;46.328;11.026;2022-07-29T03:16:35;94587.03;;;14.63;100.00
39223;BME280;24936;46.328;11.026;2022-07-29T03:19:02;94582.88;;;14.59;100.00
39223;BME280;24936;46.328;11.026;2022-07-29T03:21:29;94581.38;;;14.74;100.00
39223;BME280;24936;46.328;11.026;2022-07-29T03:23:54;94586.72;;;14.78;100.00
39223;BME280;24936;46.328;11.026;2022-07-29T03:26:20;94592.44;;;14.83;100.00
39223;BME280;24936;46.328;11.026;2022-07-29T03:28:45;94588.53;;;14.84;100.00
39223;BME280;24936;46.328;11.026;2022-07-29T03:31:11;94588.94;;;14.83;100.00
39223;BME280;24936;46.328;11.026;2022-07-29T03:33:36;94591.25;;;14.84;100.00
39223;BME280;24936;46.328;11.026;2022-07-29T03:36:02;94588.41;;;14.72;100.00
39223;BME280;24936;46.328;11.026;2022-07-29T03:38:29;94590.69;;;14.57;100.00
39223;BME280;24936;46.328;11.026;2022-07-29T03:41:06;94594.31;;;14.30;100.00
39223;BME280;24936;46.328;11.026;2022-07-29T03:43:36;94602.28;;;14.21;100.00
39223;BME280;24936;46.328;11.026;2022-07-29T03:46:04;94593.75;;;13.99;100.00
39223;BME280;24936;46.328;11.026;2022-07-29T03:48:34;94600.19;;;14.09;100.00
39223;BME280;24936;46.328;11.026;2022-07-29T03:51:02;94593.75;;;14.19;100.00
39223;BME280;24936;46.328;11.026;2022-07-29T03:53:27;94594.03;;;14.25;100.00
39223;BME280;24936;46.328;11.026;2022-07-29T03:55:54;94600.38;;;14.18;100.00
39223;BME280;24936;46.328;11.026;2022-07-29T03:58:26;94599.69;;;14.14;100.00
39223;BME280;24936;46.328;11.026;2022-07-29T04:00:52;94606.25;;;14.17;100.00
39223;BME280;24936;46.328;11.026;2022-07-29T04:03:19;94599.63;;;14.18;100.00
39223;BME280;24936;46.328;11.026;2022-07-29T04:05:45;94605.84;;;14.18;100.00
39223;BME280;24936;46.328;11.026;2022-07-29T04:08:10;94600.00;;;14.20;100.00
39223;BME280;24936;46.328;11.026;2022-07-29T04:10:35;94604.31;;;14.17;100.00
39223;BME280;24936;46.328;11.026;2022-07-29T04:13:02;94596.97;;;14.14;100.00
39223;BME280;24936;46.328;11.026;2022-07-29T04:15:28;94596.84;;;14.21;100.00
39223;BME280;24936;46.328;11.026;2022-07-29T04:17:54;94596.00;;;14.24;100.00
39223;BME280;24936;46.328;11.026;2022-07-29T04:20:19;94594.81;;;14.25;100.00
39223;BME280;24936;46.328;11.026;2022-07-29T04:22:45;94594.38;;;14.27;100.00
39223;BME280;24936;46.328;11.026;2022-07-29T04:25:10;94590.75;;;14.33;100.00
39223;BME280;24936;46.328;11.026;2022-07-29T04:27:36;94591.94;;;14.32;100.00
39223;BME280;24936;46.328;11.026;2022-07-29T04:30:21;94593.63;;;14.26;100.00
39223;BME280;24936;46.328;11.026;2022-07-29T04:32:46;94590.91;;;14.26;100.00
39223;BME280;24936;46.328;11.026;2022-07-29T04:35:12;94597.72;;;14.14;100.00
39223;BME280;24936;46.328;11.026;2022-07-29T04:37:37;94596.47;;;13.99;100.00
39223;BME280;24936;46.328;11.026;2022-07-29T04:40:03;94593.69;;;14.23;100.00
39223;BME280;24936;46.328;11.026;2022-07-29T04:42:28;94594.16;;;14.37;100.00
39223;BME280;24936;46.328;11.026;2022-07-29T04:44:54;94600.03;;;14.36;100.00
39223;BME280;24936;46.328;11.026;2022-07-29T04:47:19;94604.59;;;14.43;100.00
39223;BME280;24936;46.328;11.026;2022-07-29T04:49:44;94604.44;;;14.50;100.00
39223;BME280;24936;46.328;11.026;2022-07-29T04:52:10;94612.19;;;14.51;100.00
39223;BME280;24936;46.328;11.026;2022-07-29T04:54:35;94609.72;;;14.57;100.00
39223;BME280;24936;46.328;11.026;2022-07-29T04:57:01;94610.19;;;14.72;100.00
39223;BME280;24936;46.328;11.026;2022-07-29T04:59:26;94608.59;;;14.74;100.00
39223;BME280;24936;46.328;11.026;2022-07-29T05:01:52;94612.53;;;14.73;100.00
39223;BME280;24936;46.328;11.026;2022-07-29T05:04:17;94616.19;;;14.83;100.00
39223;BME280;24936;46.328;11.026;2022-07-29T05:06:42;94618.56;;;14.81;100.00
39223;BME280;24936;46.328;11.026;2022-07-29T05:09:08;94616.78;;;14.74;100.00
39223;BME280;24936;46.328;11.026;2022-07-29T05:11:33;94614.31;;;14.80;100.00
39223;BME280;24936;46.328;11.026;2022-07-29T05:13:58;94620.19;;;14.78;100.00
39223;BME280;24936;46.328;11.026;2022-07-29T05:16:24;94624.94;;;14.74;100.00
39223;BME280;24936;46.328;11.026;2022-07-29T05:18:49;94624.09;;;14.77;100.00
39223;BME280;24936;46.328;11.026;2022-07-29T05:21:15;94622.47;;;14.80;100.00
39223;BME280;24936;46.328;11.026;2022-07-29T05:23:40;94635.25;;;14.83;100.00
39223;BME280;24936;46.328;11.026;2022-07-29T05:26:06;94631.06;;;14.78;100.00
39223;BME280;24936;46.328;11.026;2022-07-29T05:28:34;94630.31;;;14.78;100.00
39223;BME280;24936;46.328;11.026;2022-07-29T05:31:00;94629.06;;;14.99;100.00
39223;BME280;24936;46.328;11.026;2022-07-29T05:33:25;94624.88;;;14.94;100.00
39223;BME280;24936;46.328;11.026;2022-07-29T05:35:51;94617.38;;;14.82;100.00
39223;BME280;24936;46.328;11.026;2022-07-29T05:38:16;94629.19;;;14.75;100.00
39223;BME280;24936;46.328;11.026;2022-07-29T05:40:41;94617.47;;;14.78;100.00
39223;BME280;24936;46.328;11.026;2022-07-29T05:43:07;94619.28;;;14.85;100.00
39223;BME280;24936;46.328;11.026;2022-07-29T05:45:32;94623.63;;;14.99;100.00
39223;BME280;24936;46.328;11.026;2022-07-29T05:47:58;94618.97;;;15.16;100.00
39223;BME280;24936;46.328;11.026;2022-07-29T05:50:23;94613.41;;;15.03;100.00
39223;BME280;24936;46.328;11.026;2022-07-29T05:52:49;94621.09;;;15.08;100.00
39223;BME280;24936;46.328;11.026;2022-07-29T05:55:15;94614.34;;;15.13;100.00
39223;BME280;24936;46.328;11.026;2022-07-29T05:57:40;94618.59;;;15.14;100.00
39223;BME280;24936;46.328;11.026;2022-07-29T06:00:06;94613.16;;;15.14;100.00
39223;BME280;24936;46.328;11.026;2022-07-29T06:02:32;94616.75;;;15.27;100.00
39223;BME280;24936;46.328;11.026;2022-07-29T06:04:57;94612.47;;;15.26;100.00
39223;BME280;24936;46.328;11.026;2022-07-29T06:07:22;94615.13;;;15.29;100.00
39223;BME280;24936;46.328;11.026;2022-07-29T06:09:48;94625.19;;;15.32;100.00
39223;BME280;24936;46.328;11.026;2022-07-29T06:12:13;94620.75;;;15.55;100.00
39223;BME280;24936;46.328;11.026;2022-07-29T06:14:39;94627.31;;;15.74;100.00
39223;BME280;24936;46.328;11.026;2022-07-29T06:17:05;94631.41;;;15.82;100.00
39223;BME280;24936;46.328;11.026;2022-07-29T06:19:30;94629.34;;;15.86;100.00
39223;BME280;24936;46.328;11.026;2022-07-29T06:21:56;94631.06;;;15.80;100.00
39223;BME280;24936;46.328;11.026;2022-07-29T06:24:21;94630.44;;;15.89;100.00
39223;BME280;24936;46.328;11.026;2022-07-29T06:26:47;94627.38;;;15.87;100.00
39223;BME280;24936;46.328;11.026;2022-07-29T06:29:12;94625.75;;;15.89;100.00
39223;BME280;24936;46.328;11.026;2022-07-29T06:31:38;94631.88;;;15.93;100.00
39223;BME280;24936;46.328;11.026;2022-07-29T06:34:03;94626.25;;;16.00;100.00
39223;BME280;24936;46.328;11.026;2022-07-29T06:36:29;94633.13;;;16.05;100.00
39223;BME280;24936;46.328;11.026;2022-07-29T06:38:55;94629.38;;;16.15;100.00
39223;BME280;24936;46.328;11.026;2022-07-29T06:41:20;94620.41;;;16.15;100.00
39223;BME280;24936;46.328;11.026;2022-07-29T06:43:47;94628.53;;;16.31;100.00
39223;BME280;24936;46.328;11.026;2022-07-29T06:46:15;94628.84;;;16.33;100.00
39223;BME280;24936;46.328;11.026;2022-07-29T06:48:43;94618.50;;;16.41;100.00
39223;BME280;24936;46.328;11.026;2022-07-29T06:51:09;94619.84;;;16.49;100.00
39223;BME280;24936;46.328;11.026;2022-07-29T06:53:35;94615.28;;;16.58;100.00
39223;BME280;24936;46.328;11.026;2022-07-29T06:56:04;94616.38;;;16.61;100.00
39223;BME280;24936;46.328;11.026;2022-07-29T06:58:30;94610.06;;;16.64;100.00
39223;BME280;24936;46.328;11.026;2022-07-29T07:00:57;94606.44;;;16.67;100.00
39223;BME280;24936;46.328;11.026;2022-07-29T07:03:23;94606.44;;;16.67;100.00
39223;BME280;24936;46.328;11.026;2022-07-29T07:05:49;94595.84;;;16.69;100.00
39223;BME280;24936;46.328;11.026;2022-07-29T07:08:14;94603.75;;;16.80;100.00
39223;BME280;24936;46.328;11.026;2022-07-29T07:10:41;94605.53;;;16.87;100.00
39223;BME280;24936;46.328;11.026;2022-07-29T07:13:07;94605.50;;;16.99;100.00
39223;BME280;24936;46.328;11.026;2022-07-29T07:15:32;94606.06;;;17.07;100.00
39223;BME280;24936;46.328;11.026;2022-07-29T07:17:58;94593.47;;;17.22;100.00
39223;BME280;24936;46.328;11.026;2022-07-29T07:20:24;94598.06;;;17.13;100.00
39223;BME280;24936;46.328;11.026;2022-07-29T07:22:50;94606.16;;;17.16;100.00
39223;BME280;24936;46.328;11.026;2022-07-29T07:25:15;94601.44;;;17.17;100.00
39223;BME280;24936;46.328;11.026;2022-07-29T07:27:43;94587.56;;;17.24;100.00
39223;BME280;24936;46.328;11.026;2022-07-29T07:30:08;94590.50;;;17.42;100.00
39223;BME280;24936;46.328;11.026;2022-07-29T07:32:34;94601.31;;;17.46;100.00
39223;BME280;24936;46.328;11.026;2022-07-29T07:35:00;94573.91;;;17.59;100.00
39223;BME280;24936;46.328;11.026;2022-07-29T07:37:26;94569.09;;;17.63;100.00
39223;BME280;24936;46.328;11.026;2022-07-29T07:39:52;94571.72;;;17.66;100.00
39223;BME280;24936;46.328;11.026;2022-07-29T07:42:18;94576.56;;;17.75;100.00
39223;BME280;24936;46.328;11.026;2022-07-29T07:44:44;94569.28;;;17.81;100.00
39223;BME280;24936;46.328;11.026;2022-07-29T07:47:11;94565.94;;;17.99;100.00
39223;BME280;24936;46.328;11.026;2022-07-29T07:49:37;94555.88;;;17.96;100.00
39223;BME280;24936;46.328;11.026;2022-07-29T07:52:02;94555.38;;;18.10;100.00
39223;BME280;24936;46.328;11.026;2022-07-29T07:54:28;94546.94;;;18.48;100.00
39223;BME280;24936;46.328;11.026;2022-07-29T07:56:53;94541.66;;;18.85;100.00
39223;BME280;24936;46.328;11.026;2022-07-29T07:59:19;94536.06;;;18.98;100.00
39223;BME280;24936;46.328;11.026;2022-07-29T08:01:44;94527.00;;;19.19;100.00
39223;BME280;24936;46.328;11.026;2022-07-29T08:04:09;94523.13;;;19.66;100.00
39223;BME280;24936;46.328;11.026;2022-07-29T08:06:35;94514.72;;;20.77;100.00
39223;BME280;24936;46.328;11.026;2022-07-29T08:09:03;94496.03;;;22.01;100.00
39223;BME280;24936;46.328;11.026;2022-07-29T08:11:28;94485.59;;;23.49;100.00
39223;BME280;24936;46.328;11.026;2022-07-29T08:13:54;94475.41;;;24.02;100.00
39223;BME280;24936;46.328;11.026;2022-07-29T08:16:20;94476.91;;;24.87;100.00
39223;BME280;24936;46.328;11.026;2022-07-29T08:18:46;94473.63;;;24.83;100.00
39223;BME280;24936;46.328;11.026;2022-07-29T08:21:13;94467.72;;;25.01;100.00
39223;BME280;24936;46.328;11.026;2022-07-29T08:23:38;94463.50;;;23.90;100.00
39223;BME280;24936;46.328;11.026;2022-07-29T08:26:05;94459.78;;;23.32;100.00
39223;BME280;24936;46.328;11.026;2022-07-29T08:28:31;94462.91;;;22.54;100.00
39223;BME280;24936;46.328;11.026;2022-07-29T08:30:56;94466.22;;;21.99;100.00
39223;BME280;24936;46.328;11.026;2022-07-29T08:33:22;94466.69;;;21.83;100.00
39223;BME280;24936;46.328;11.026;2022-07-29T08:35:47;94463.78;;;21.62;100.00
39223;BME280;24936;46.328;11.026;2022-07-29T08:38:12;94457.91;;;21.70;100.00
39223;BME280;24936;46.328;11.026;2022-07-29T08:40:39;94453.63;;;22.37;100.00
39223;BME280;24936;46.328;11.026;2022-07-29T08:43:08;94443.94;;;22.77;100.00
39223;BME280;24936;46.328;11.026;2022-07-29T08:48:08;94447.78;;;24.28;100.00
39223;BME280;24936;46.328;11.026;2022-07-29T08:50:35;94441.28;;;25.48;100.00
39223;BME280;24936;46.328;11.026;2022-07-29T08:53:02;94437.44;;;25.29;100.00
39223;BME280;24936;46.328;11.026;2022-07-29T08:55:28;94433.22;;;26.55;100.00
39223;BME280;24936;46.328;11.026;2022-07-29T08:57:54;94432.97;;;26.87;100.00
39223;BME280;24936;46.328;11.026;2022-07-29T09:00:21;94428.94;;;26.60;100.00
39223;BME280;24936;46.328;11.026;2022-07-29T09:02:54;94420.69;;;27.46;100.00
39223;BME280;24936;46.328;11.026;2022-07-29T09:05:22;94418.59;;;28.10;100.00
39223;BME280;24936;46.328;11.026;2022-07-29T09:07:49;94418.75;;;28.24;100.00
39223;BME280;24936;46.328;11.026;2022-07-29T09:10:15;94415.00;;;28.21;100.00
39223;BME280;24936;46.328;11.026;2022-07-29T09:12:40;94415.59;;;29.29;100.00
39223;BME280;24936;46.328;11.026;2022-07-29T09:15:06;94415.84;;;28.76;100.00
39223;BME280;24936;46.328;11.026;2022-07-29T09:17:46;94411.19;;;29.14;100.00
39223;BME280;24936;46.328;11.026;2022-07-29T09:20:21;94408.78;;;29.00;100.00
39223;BME280;24936;46.328;11.026;2022-07-29T09:22:48;94409.09;;;29.64;100.00
39223;BME280;24936;46.328;11.026;2022-07-29T09:28:10;94399.69;;;30.05;100.00
39223;BME280;24936;46.328;11.026;2022-07-29T09:30:49;94404.72;;;29.69;100.00
39223;BME280;24936;46.328;11.026;2022-07-29T09:33:15;94382.72;;;30.22;100.00
39223;BME280;24936;46.328;11.026;2022-07-29T09:35:40;94392.94;;;30.32;100.00
39223;BME280;24936;46.328;11.026;2022-07-29T09:38:13;94393.97;;;29.97;100.00
39223;BME280;24936;46.328;11.026;2022-07-29T09:40:39;94393.19;;;30.34;100.00
39223;BME280;24936;46.328;11.026;2022-07-29T09:43:13;94388.38;;;30.80;100.00
39223;BME280;24936;46.328;11.026;2022-07-29T09:45:39;94394.66;;;30.22;100.00
39223;BME280;24936;46.328;11.026;2022-07-29T09:48:20;94392.59;;;30.04;100.00
39223;BME280;24936;46.328;11.026;2022-07-29T09:50:46;94383.38;;;29.52;100.00
39223;BME280;24936;46.328;11.026;2022-07-29T09:53:38;94384.38;;;30.11;100.00
39223;BME280;24936;46.328;11.026;2022-07-29T09:56:05;94380.22;;;30.50;100.00
39223;BME280;24936;46.328;11.026;2022-07-29T09:58:31;94378.25;;;30.64;100.00
39223;BME280;24936;46.328;11.026;2022-07-29T10:00:59;94368.91;;;30.75;100.00
39223;BME280;24936;46.328;11.026;2022-07-29T10:03:25;94370.34;;;31.08;100.00
39223;BME280;24936;46.328;11.026;2022-07-29T10:06:06;94366.75;;;30.03;100.00
39223;BME280;24936;46.328;11.026;2022-07-29T10:08:32;94365.72;;;30.52;91.82
39223;BME280;24936;46.328;11.026;2022-07-29T10:11:14;94362.72;;;31.48;100.00
39223;BME280;24936;46.328;11.026;2022-07-29T10:13:42;94361.03;;;31.79;100.00
39223;BME280;24936;46.328;11.026;2022-07-29T10:16:08;94355.25;;;32.33;94.88
39223;BME280;24936;46.328;11.026;2022-07-29T10:18:34;94351.13;;;30.91;85.05
39223;BME280;24936;46.328;11.026;2022-07-29T10:21:00;94344.44;;;31.21;98.67
39223;BME280;24936;46.328;11.026;2022-07-29T10:23:27;94349.59;;;30.90;77.87
39223;BME280;24936;46.328;11.026;2022-07-29T10:25:53;94340.63;;;32.40;100.00
39223;BME280;24936;46.328;11.026;2022-07-29T10:28:19;94336.06;;;30.35;77.99
39223;BME280;24936;46.328;11.026;2022-07-29T10:30:45;94332.06;;;29.99;92.29
39223;BME280;24936;46.328;11.026;2022-07-29T10:41:10;94325.50;;;32.43;74.04
39223;BME280;24936;46.328;11.026;2022-07-29T10:44:07;94326.50;;;27.42;100.00
39223;BME280;24936;46.328;11.026;2022-07-29T10:46:35;94321.41;;;29.46;100.00
39223;BME280;24936;46.328;11.026;2022-07-29T10:52:05;94308.78;;;31.00;74.72
39223;BME280;24936;46.328;11.026;2022-07-29T10:59:43;94294.91;;;32.45;100.00
39223;BME280;24936;46.328;11.026;2022-07-29T11:07:22;94286.41;;;32.58;82.35
39223;BME280;24936;46.328;11.026;2022-07-29T11:15:09;94272.06;;;33.70;52.00
39223;BME280;24936;46.328;11.026;2022-07-29T11:20:34;94260.72;;;34.30;52.24
39223;BME280;24936;46.328;11.026;2022-07-29T11:23:00;94257.75;;;34.51;53.44
39223;BME280;24936;46.328;11.026;2022-07-29T11:25:26;94256.78;;;34.33;58.70
39223;BME280;24936;46.328;11.026;2022-07-29T11:27:52;94255.38;;;33.57;50.98
39223;BME280;24936;46.328;11.026;2022-07-29T11:30:19;94255.47;;;33.36;40.10
39223;BME280;24936;46.328;11.026;2022-07-29T11:32:46;94254.47;;;32.82;54.46
39223;BME280;24936;46.328;11.026;2022-07-29T11:35:15;94249.63;;;33.78;55.86
39223;BME280;24936;46.328;11.026;2022-07-29T11:37:41;94261.78;;;33.96;78.88
39223;BME280;24936;46.328;11.026;2022-07-29T11:47:31;94246.09;;;33.93;54.74
39223;BME280;24936;46.328;11.026;2022-07-29T11:49:59;94244.41;;;33.82;47.87
39223;BME280;24936;46.328;11.026;2022-07-29T11:55:09;94244.13;;;30.11;70.56
39223;BME280;24936;46.328;11.026;2022-07-29T11:57:35;94237.66;;;29.20;72.70
39223;BME280;24936;46.328;11.026;2022-07-29T12:00:01;94234.41;;;27.99;99.76
39223;BME280;24936;46.328;11.026;2022-07-29T12:02:39;94240.53;;;27.09;100.00
39223;BME280;24936;46.328;11.026;2022-07-29T12:05:07;94240.38;;;26.90;100.00
39223;BME280;24936;46.328;11.026;2022-07-29T12:07:34;94236.22;;;26.44;100.00
39223;BME280;24936;46.328;11.026;2022-07-29T12:10:00;94244.88;;;26.12;100.00
39223;BME280;24936;46.328;11.026;2022-07-29T12:12:26;94242.88;;;25.90;100.00
39223;BME280;24936;46.328;11.026;2022-07-29T12:14:51;94246.41;;;25.74;100.00
39223;BME280;24936;46.328;11.026;2022-07-29T12:17:28;94238.84;;;25.58;100.00
39223;BME280;24936;46.328;11.026;2022-07-29T12:19:54;94246.63;;;25.31;100.00
39223;BME280;24936;46.328;11.026;2022-07-29T12:22:29;94261.56;;;24.85;100.00
39223;BME280;24936;46.328;11.026;2022-07-29T12:25:01;94248.13;;;24.55;100.00
39223;BME280;24936;46.328;11.026;2022-07-29T12:27:28;94264.25;;;24.20;100.00
39223;BME280;24936;46.328;11.026;2022-07-29T12:30:01;94266.34;;;23.15;100.00
39223;BME280;24936;46.328;11.026;2022-07-29T12:32:35;94261.97;;;22.42;100.00
39223;BME280;24936;46.328;11.026;2022-07-29T12:35:18;94271.47;;;22.41;100.00
39223;BME280;24936;46.328;11.026;2022-07-29T12:37:46;94275.94;;;22.38;100.00
39223;BME280;24936;46.328;11.026;2022-07-29T12:40:17;94287.84;;;21.79;100.00
39223;BME280;24936;46.328;11.026;2022-07-29T12:43:09;94282.53;;;21.46;100.00
39223;BME280;24936;46.328;11.026;2022-07-29T12:45:36;94291.28;;;21.45;100.00
39223;BME280;24936;46.328;11.026;2022-07-29T12:48:02;94299.44;;;21.39;100.00
39223;BME280;24936;46.328;11.026;2022-07-29T12:50:28;94301.00;;;21.31;100.00
39223;BME280;24936;46.328;11.026;2022-07-29T12:52:53;94290.84;;;21.07;100.00
39223;BME280;24936;46.328;11.026;2022-07-29T12:55:38;94297.53;;;20.67;100.00
39223;BME280;24936;46.328;11.026;2022-07-29T12:58:04;94292.34;;;20.69;100.00
39223;BME280;24936;46.328;11.026;2022-07-29T13:00:29;94293.41;;;20.72;100.00
39223;BME280;24936;46.328;11.026;2022-07-29T13:02:59;94297.75;;;21.03;100.00
39223;BME280;24936;46.328;11.026;2022-07-29T13:05:39;94278.34;;;21.36;100.00
39223;BME280;24936;46.328;11.026;2022-07-29T13:08:10;94277.78;;;21.47;100.00
39223;BME280;24936;46.328;11.026;2022-07-29T13:10:36;94273.59;;;21.36;100.00
39223;BME280;24936;46.328;11.026;2022-07-29T13:15:43;94278.91;;;21.10;100.00
39223;BME280;24936;46.328;11.026;2022-07-29T13:20:53;94290.28;;;21.92;100.00
39223;BME280;24936;46.328;11.026;2022-07-29T13:23:18;94298.94;;;21.85;100.00
39223;BME280;24936;46.328;11.026;2022-07-29T13:25:44;94286.28;;;22.08;100.00
39223;BME280;24936;46.328;11.026;2022-07-29T13:28:09;94283.19;;;22.76;100.00
39223;BME280;24936;46.328;11.026;2022-07-29T13:30:37;94279.25;;;23.24;100.00
39223;BME280;24936;46.328;11.026;2022-07-29T13:33:02;94273.31;;;23.89;100.00
39223;BME280;24936;46.328;11.026;2022-07-29T13:35:28;94268.09;;;24.82;100.00
39223;BME280;24936;46.328;11.026;2022-07-29T13:37:54;94266.34;;;24.85;100.00
39223;BME280;24936;46.328;11.026;2022-07-29T13:40:20;94265.31;;;25.81;100.00
39223;BME280;24936;46.328;11.026;2022-07-29T13:42:45;94255.56;;;26.78;100.00
39223;BME280;24936;46.328;11.026;2022-07-29T13:45:11;94252.78;;;26.78;100.00